createdAt,value
2022-07-29T00:01:45.502Z,8.07
2022-07-29T00:04:15.842Z,4.73
2022-07-29T00:06:44.513Z,7.50
2022-07-29T00:09:12.962Z,4.67
2022-07-29T00:11:41.379Z,3.00
2022-07-29T00:14:10.087Z,3.33
2022-07-29T00:16:38.641Z,2.87
2022-07-29T00:19:07.850Z,5.17
2022-07-29T00:21:37.910Z,5.10
2022-07-29T00:24:06.698Z,4.43
2022-07-29T00:26:35.213Z,4.33
2022-07-29T00:31:53.788Z,5.07
2022-07-29T00:34:39.650Z,3.10
2022-07-29T00:37:09.644Z,9.43
2022-07-29T00:39:38.090Z,6.87
2022-07-29T00:42:07.290Z,4.73
2022-07-29T00:44:39.406Z,4.63
2022-07-29T00:47:08.655Z,3.93
2022-07-29T00:49:37.821Z,3.73
2022-07-29T00:52:10.382Z,6.60
2022-07-29T00:54:44.349Z,4.47
2022-07-29T00:57:14.142Z,6.87
2022-07-29T00:59:42.783Z,5.90
2022-07-29T01:02:11.567Z,4.23
2022-07-29T01:04:40.266Z,6.23
2022-07-29T01:07:10.571Z,7.93
2022-07-29T01:09:46.204Z,5.43
2022-07-29T01:12:19.140Z,5.37
2022-07-29T01:14:49.740Z,3.57
2022-07-29T01:17:23.415Z,7.13
2022-07-29T01:20:00.628Z,5.10
2022-07-29T01:22:40.644Z,5.53
2022-07-29T01:25:50.745Z,4.53
2022-07-29T01:28:54.369Z,8.17
2022-07-29T01:31:36.639Z,7.10
2022-07-29T01:34:13.763Z,192.60
2022-07-29T01:36:51.247Z,557.73
2022-07-29T01:39:25.846Z,398.70
2022-07-29T01:42:01.828Z,387.20
2022-07-29T01:44:35.606Z,72.53
2022-07-29T01:47:13.341Z,12.20
2022-07-29T01:49:46.586Z,3.33
2022-07-29T01:52:21.457Z,8.47
2022-07-29T01:54:54.493Z,5.43
2022-07-29T01:57:27.790Z,7.20
2022-07-29T01:59:59.680Z,4.03
2022-07-29T02:02:30.625Z,5.63
2022-07-29T02:05:02.105Z,4.07
2022-07-29T02:07:34.143Z,5.23
2022-07-29T02:10:05.077Z,3.53
2022-07-29T02:12:35.413Z,4.50
2022-07-29T02:15:08.397Z,4.13
2022-07-29T02:17:44.471Z,6.43
2022-07-29T02:20:14.770Z,527.53
2022-07-29T02:22:44.484Z,690.37
2022-07-29T02:25:14.854Z,433.47
2022-07-29T02:27:45.007Z,74.00
2022-07-29T02:30:15.985Z,8.77
2022-07-29T02:32:47.097Z,6.97
2022-07-29T02:35:18.189Z,3.37
2022-07-29T02:38:08.689Z,4.27
2022-07-29T02:40:40.241Z,5.07
2022-07-29T02:43:09.984Z,5.60
2022-07-29T02:45:40.196Z,5.80
2022-07-29T02:48:15.611Z,5.57
2022-07-29T02:50:51.394Z,4.23
2022-07-29T02:53:22.976Z,4.57
2022-07-29T02:55:57.879Z,9.83
2022-07-29T02:58:31.658Z,4.70
2022-07-29T03:01:06.454Z,6.27
2022-07-29T03:03:39.233Z,5.50
2022-07-29T03:06:09.838Z,6.20
2022-07-29T03:09:01.378Z,5.20
2022-07-29T03:11:41.527Z,8.57
2022-07-29T03:14:19.351Z,5.70
2022-07-29T03:16:50.141Z,5.23
2022-07-29T03:19:19.330Z,7.20
2022-07-29T03:21:48.140Z,7.37
2022-07-29T03:24:31.426Z,5.37
2022-07-29T03:27:00.742Z,4.93
2022-07-29T03:29:33.039Z,3.93
2022-07-29T03:32:07.141Z,7.90
2022-07-29T03:34:36.164Z,4.57
2022-07-29T03:37:04.735Z,7.23
2022-07-29T03:39:37.741Z,6.40
2022-07-29T03:42:09.567Z,4.57
2022-07-29T03:44:39.711Z,9.20
2022-07-29T03:47:12.072Z,3.57
2022-07-29T03:49:42.720Z,3.70
2022-07-29T03:52:12.014Z,5.77
2022-07-29T03:54:41.125Z,6.97
2022-07-29T03:57:13.064Z,4.30
2022-07-29T03:59:42.679Z,7.67
2022-07-29T04:02:16.598Z,7.83
2022-07-29T04:04:48.816Z,3.87
2022-07-29T04:07:18.394Z,5.23
2022-07-29T04:09:47.049Z,5.33
2022-07-29T04:12:15.530Z,3.80
2022-07-29T04:14:44.040Z,5.93
2022-07-29T04:17:14.108Z,7.07
2022-07-29T04:19:42.537Z,4.83
2022-07-29T04:22:10.969Z,9.97
2022-07-29T04:24:42.839Z,7.07
2022-07-29T04:27:12.640Z,7.10
2022-07-29T04:29:56.274Z,10.23
2022-07-29T04:32:27.576Z,5.50
2022-07-29T04:34:56.086Z,6.33
2022-07-29T04:37:24.666Z,6.97
2022-07-29T04:39:53.196Z,4.37
2022-07-29T04:42:27.483Z,5.97
2022-07-29T04:44:56.315Z,8.70
2022-07-29T04:47:24.837Z,6.93
2022-07-29T04:49:54.735Z,4.63
2022-07-29T04:52:23.358Z,5.57
2022-07-29T04:54:51.974Z,5.90
2022-07-29T04:57:20.549Z,7.67
2022-07-29T04:59:49.892Z,4.00
2022-07-29T05:02:18.516Z,4.50
2022-07-29T05:04:47.310Z,6.17
2022-07-29T05:07:17.260Z,7.43
2022-07-29T05:09:45.771Z,4.30
2022-07-29T05:12:14.328Z,3.97
2022-07-29T05:14:42.833Z,6.67
2022-07-29T05:17:11.273Z,5.07
2022-07-29T05:19:39.938Z,5.10
2022-07-29T05:22:08.584Z,4.33
2022-07-29T05:24:38.534Z,4.93
2022-07-29T05:27:07.086Z,2.93
2022-07-29T05:29:43.842Z,5.23
2022-07-29T05:32:14.163Z,9.23
2022-07-29T05:34:50.679Z,4.67
2022-07-29T05:37:20.856Z,4.10
2022-07-29T05:39:57.240Z,7.73
2022-07-29T05:42:27.805Z,5.50
2022-07-29T05:44:56.302Z,3.63
2022-07-29T05:47:25.331Z,8.90
2022-07-29T05:49:54.163Z,4.90
2022-07-29T05:52:23.004Z,6.17
2022-07-29T05:54:53.499Z,5.70
2022-07-29T05:57:23.380Z,5.33
2022-07-29T05:59:52.938Z,6.33
2022-07-29T06:02:21.417Z,3.33
2022-07-29T06:04:50.712Z,4.43
2022-07-29T06:07:19.309Z,3.90
2022-07-29T06:09:47.753Z,8.67
2022-07-29T06:12:17.557Z,4.80
2022-07-29T06:14:48.914Z,2.63
2022-07-29T06:17:22.620Z,4.97
2022-07-29T06:19:51.312Z,3.97
2022-07-29T06:22:19.775Z,5.10
2022-07-29T06:24:48.273Z,3.17
2022-07-29T06:27:18.837Z,4.37
2022-07-29T06:29:47.357Z,5.57
2022-07-29T06:32:15.740Z,3.80
2022-07-29T06:34:44.281Z,4.63
2022-07-29T06:37:18.966Z,4.60
2022-07-29T06:39:47.835Z,2.53
2022-07-29T06:42:17.815Z,2.43
2022-07-29T06:44:46.225Z,4.73
2022-07-29T06:47:15.348Z,2.53
2022-07-29T06:49:43.732Z,5.53
2022-07-29T06:52:12.162Z,2.77
2022-07-29T06:54:41.071Z,3.37
2022-07-29T06:57:09.588Z,3.73
2022-07-29T06:59:39.559Z,4.67
2022-07-29T07:02:08.274Z,3.07
2022-07-29T07:04:37.069Z,6.23
2022-07-29T07:07:05.613Z,5.10
2022-07-29T07:09:40.485Z,1.47
2022-07-29T07:12:09.951Z,5.23
2022-07-29T07:14:40.988Z,2.33
2022-07-29T07:17:09.666Z,3.80
2022-07-29T07:19:38.484Z,1.90
2022-07-29T07:22:07.199Z,5.33
2022-07-29T07:24:35.914Z,5.83
2022-07-29T07:27:04.458Z,5.07
2022-07-29T07:29:32.813Z,5.43
2022-07-29T07:32:02.709Z,3.67
2022-07-29T07:34:31.795Z,6.10
2022-07-29T07:37:00.328Z,5.83
2022-07-29T07:39:28.926Z,3.93
2022-07-29T07:41:57.438Z,5.33
2022-07-29T07:44:25.928Z,2.47
2022-07-29T07:46:54.862Z,5.73
2022-07-29T07:49:25.000Z,4.60
2022-07-29T07:51:53.793Z,5.80
2022-07-29T07:54:22.238Z,8.90
2022-07-29T07:56:53.400Z,11.67
2022-07-29T07:59:21.964Z,9.83
2022-07-29T08:01:55.749Z,9.17
2022-07-29T08:04:29.147Z,4.30
2022-07-29T08:06:58.670Z,5.87
2022-07-29T08:09:30.348Z,2.80
2022-07-29T08:11:59.508Z,3.33
2022-07-29T08:14:28.062Z,4.30
2022-07-29T08:16:57.155Z,4.90
2022-07-29T08:19:27.542Z,2.20
2022-07-29T08:21:56.589Z,4.97
2022-07-29T08:24:42.254Z,3.47
2022-07-29T08:27:33.479Z,2.17
2022-07-29T08:29:59.867Z,3.87
2022-07-29T08:32:52.167Z,4.27
2022-07-29T08:35:19.935Z,5.43
2022-07-29T08:37:49.404Z,6.60
2022-07-29T08:40:18.076Z,2.70
2022-07-29T08:42:53.384Z,3.77
2022-07-29T08:45:29.878Z,2.77
2022-07-29T08:47:58.978Z,5.60
2022-07-29T08:50:28.893Z,6.87
2022-07-29T08:53:02.414Z,5.97
2022-07-29T08:55:37.427Z,6.33
2022-07-29T08:58:08.654Z,4.43
2022-07-29T09:00:43.721Z,3.43
2022-07-29T09:03:18.077Z,4.23
2022-07-29T09:05:48.694Z,5.43
2022-07-29T09:08:18.195Z,3.40
2022-07-29T09:10:47.170Z,3.30
2022-07-29T09:13:15.661Z,1.97
2022-07-29T09:15:44.263Z,3.47
2022-07-29T09:18:19.782Z,9.03
2022-07-29T09:21:29.332Z,4.60
2022-07-29T09:24:06.725Z,3.53
2022-07-29T09:26:37.168Z,4.93
2022-07-29T09:29:12.345Z,3.40
2022-07-29T09:31:43.154Z,4.83
2022-07-29T09:34:14.940Z,2.10
2022-07-29T09:36:47.288Z,3.93
2022-07-29T09:39:17.962Z,4.97
2022-07-29T09:41:54.008Z,4.30
2022-07-29T09:44:23.582Z,3.47
2022-07-29T09:47:00.313Z,14.73
2022-07-29T09:49:30.346Z,3.40
2022-07-29T09:52:10.223Z,8.67
2022-07-29T09:54:39.327Z,6.23
2022-07-29T09:57:10.941Z,4.93
2022-07-29T09:59:50.225Z,5.37
2022-07-29T10:02:23.710Z,6.50
2022-07-29T10:04:53.324Z,4.73
2022-07-29T10:07:24.523Z,4.07
2022-07-29T10:09:57.204Z,4.10
2022-07-29T10:12:26.861Z,4.07
2022-07-29T10:14:55.647Z,7.97
2022-07-29T10:17:25.276Z,3.50
2022-07-29T10:19:54.593Z,3.20
2022-07-29T10:22:50.662Z,4.73
2022-07-29T10:25:13.670Z,3.80
2022-07-29T10:27:42.433Z,4.63
2022-07-29T10:30:12.474Z,8.27
2022-07-29T10:33:01.541Z,8.63
2022-07-29T10:35:54.360Z,2.97
2022-07-29T10:38:47.207Z,7.30
2022-07-29T10:41:44.361Z,6.90
2022-07-29T10:44:19.436Z,6.23
2022-07-29T10:46:49.191Z,2.20
2022-07-29T10:49:18.740Z,3.97
2022-07-29T10:52:08.153Z,2.67
2022-07-29T10:54:47.398Z,3.33
2022-07-29T10:57:18.717Z,4.30
2022-07-29T10:59:53.061Z,3.63
2022-07-29T11:02:45.215Z,3.83
2022-07-29T11:05:15.921Z,6.07
2022-07-29T11:08:20.287Z,4.97
2022-07-29T11:10:50.961Z,2.30
2022-07-29T11:13:54.373Z,4.23
2022-07-29T11:16:25.287Z,3.80
2022-07-29T11:22:16.627Z,6.97
2022-07-29T11:24:50.269Z,4.17
2022-07-29T11:27:23.301Z,4.80
2022-07-29T11:29:58.836Z,6.77
2022-07-29T11:32:40.401Z,5.90
2022-07-29T11:35:37.301Z,1.57
2022-07-29T11:38:27.953Z,4.23
2022-07-29T11:41:25.912Z,5.20
2022-07-29T11:43:59.012Z,6.73
2022-07-29T11:46:50.539Z,9.07
2022-07-29T11:49:32.758Z,5.33
2022-07-29T11:52:04.268Z,5.63
2022-07-29T11:54:57.296Z,5.23
2022-07-29T11:57:36.106Z,8.13
2022-07-29T12:00:12.512Z,3.27
2022-07-29T12:02:48.572Z,4.30
2022-07-29T12:08:14.623Z,5.20
2022-07-29T12:10:44.716Z,4.40
2022-07-29T12:13:13.800Z,3.80
2022-07-29T12:15:46.944Z,6.17
2022-07-29T12:18:24.310Z,2.97
2022-07-29T12:21:03.675Z,5.60
2022-07-29T12:23:34.996Z,2.20
2022-07-29T12:26:10.958Z,3.63
2022-07-29T12:28:40.595Z,2.07
2022-07-29T12:31:42.407Z,2.40
2022-07-29T12:34:08.019Z,2.67
2022-07-29T12:36:36.609Z,4.27
2022-07-29T12:39:05.238Z,5.57
2022-07-29T12:41:33.889Z,2.17
2022-07-29T12:44:02.375Z,4.77
2022-07-29T12:46:32.670Z,4.73
2022-07-29T12:49:01.318Z,4.63
2022-07-29T12:51:33.811Z,4.87
2022-07-29T12:54:08.100Z,6.03
2022-07-29T12:56:45.169Z,6.67
2022-07-29T12:59:18.347Z,5.13
2022-07-29T13:01:50.657Z,4.70
2022-07-29T13:04:30.617Z,4.63
2022-07-29T13:07:04.784Z,2.03
2022-07-29T13:09:41.950Z,7.03
2022-07-29T13:12:12.266Z,3.53
2022-07-29T13:14:45.424Z,4.53
2022-07-29T13:17:17.564Z,7.07
2022-07-29T13:19:47.535Z,4.83
2022-07-29T13:22:18.109Z,4.20
2022-07-29T13:24:54.788Z,3.87
2022-07-29T13:27:26.721Z,3.67
2022-07-29T13:29:57.766Z,4.60
2022-07-29T13:32:29.154Z,8.73
2022-07-29T13:34:57.942Z,4.23
2022-07-29T13:37:27.141Z,5.53
2022-07-29T13:39:57.124Z,4.20
2022-07-29T13:42:26.095Z,5.20
2022-07-29T13:44:54.665Z,6.97
2022-07-29T13:47:32.772Z,3.40
2022-07-29T13:50:03.769Z,6.17
2022-07-29T13:52:34.581Z,5.07
2022-07-29T13:55:03.550Z,5.23
2022-07-29T13:57:32.010Z,3.97
2022-07-29T14:00:00.501Z,3.77
2022-07-29T14:02:31.755Z,6.20
2022-07-29T14:05:07.625Z,6.07
2022-07-29T14:07:36.940Z,5.00
2022-07-29T14:10:05.955Z,4.53
2022-07-29T14:12:34.573Z,5.13
2022-07-29T14:15:03.198Z,4.67
2022-07-29T14:17:31.693Z,5.73
2022-07-29T14:20:00.145Z,4.53
2022-07-29T14:22:30.573Z,5.43
2022-07-29T14:24:59.415Z,3.63
2022-07-29T14:27:38.374Z,4.43
2022-07-29T14:30:08.107Z,8.13
2022-07-29T14:32:36.574Z,4.90
2022-07-29T14:35:05.383Z,6.60
2022-07-29T14:37:40.327Z,4.20
2022-07-29T14:40:10.494Z,8.97
2022-07-29T14:42:39.631Z,3.20
2022-07-29T14:45:09.512Z,6.13
2022-07-29T14:47:38.337Z,5.57
2022-07-29T14:50:08.113Z,6.97
2022-07-29T14:52:38.016Z,4.30
2022-07-29T14:55:19.813Z,2.30
2022-07-29T14:57:49.429Z,6.60
2022-07-29T15:00:19.086Z,2.87
2022-07-29T15:03:01.543Z,4.50
2022-07-29T15:05:30.974Z,6.60
2022-07-29T15:08:01.499Z,6.93
2022-07-29T15:10:30.319Z,2.97
2022-07-29T15:12:58.864Z,4.13
2022-07-29T15:15:27.810Z,3.70
2022-07-29T15:17:56.507Z,3.50
2022-07-29T15:20:27.005Z,7.23
2022-07-29T15:22:56.654Z,3.90
2022-07-29T15:25:28.185Z,6.60
2022-07-29T15:28:01.241Z,5.33
2022-07-29T15:30:34.069Z,4.93
2022-07-29T15:33:04.175Z,7.17
2022-07-29T15:35:32.735Z,3.30
2022-07-29T15:38:01.159Z,2.50
2022-07-29T15:40:31.372Z,3.93
2022-07-29T15:43:02.022Z,3.20
2022-07-29T15:45:31.982Z,3.60
2022-07-29T15:48:01.630Z,4.13
2022-07-29T15:50:30.099Z,27.70
2022-07-29T15:52:58.714Z,8.43
2022-07-29T15:55:27.890Z,3.20
2022-07-29T15:58:00.585Z,3.77
2022-07-29T16:00:29.657Z,6.43
2022-07-29T16:02:58.466Z,2.67
2022-07-29T16:05:29.784Z,3.13
2022-07-29T16:07:59.935Z,4.30
2022-07-29T16:10:28.425Z,3.93
2022-07-29T16:12:58.392Z,4.87
2022-07-29T16:15:27.007Z,2.97
2022-07-29T16:17:55.488Z,4.50
2022-07-29T16:20:24.224Z,8.90
2022-07-29T16:22:52.666Z,5.80
2022-07-29T16:25:38.388Z,3.90
2022-07-29T16:28:14.300Z,10.43
2022-07-29T16:30:42.903Z,26.83
2022-07-29T16:33:11.261Z,6.93
2022-07-29T16:35:40.572Z,3.47
2022-07-29T16:38:09.134Z,32.07
2022-07-29T16:40:37.523Z,13.03
2022-07-29T16:43:06.543Z,6.67
2022-07-29T16:45:45.446Z,2.90
2022-07-29T16:48:15.158Z,3.97
2022-07-29T16:50:46.837Z,7.77
2022-07-29T16:53:15.540Z,5.27
2022-07-29T16:55:44.279Z,7.40
2022-07-29T16:58:13.322Z,4.03
2022-07-29T17:00:43.451Z,10.23
2022-07-29T17:03:13.562Z,8.60
2022-07-29T17:05:53.920Z,5.43
2022-07-29T17:08:23.099Z,5.23
2022-07-29T17:10:51.819Z,6.07
2022-07-29T17:13:21.222Z,2.87
2022-07-29T17:15:51.174Z,10.90
2022-07-29T17:18:19.529Z,12.80
2022-07-29T17:20:47.987Z,6.93
2022-07-29T17:23:16.398Z,5.67
2022-07-29T17:25:44.981Z,15.43
2022-07-29T17:28:13.461Z,10.63
2022-07-29T17:30:42.161Z,8.23
2022-07-29T17:33:12.168Z,4.10
2022-07-29T17:35:58.075Z,10.47
2022-07-29T17:38:27.059Z,5.97
2022-07-29T17:40:55.581Z,6.07
2022-07-29T17:43:24.070Z,5.57
2022-07-29T17:45:55.880Z,6.23
2022-07-29T17:48:29.411Z,9.47
2022-07-29T17:50:58.685Z,8.20
2022-07-29T17:53:27.264Z,4.43
2022-07-29T17:55:56.478Z,6.37
2022-07-29T17:58:25.255Z,6.20
2022-07-29T18:00:54.353Z,6.23
2022-07-29T18:03:23.127Z,9.73
2022-07-29T18:05:53.306Z,3.67
2022-07-29T18:08:21.980Z,8.83
2022-07-29T18:10:51.178Z,9.50
2022-07-29T18:13:19.687Z,8.90
2022-07-29T18:15:48.708Z,9.93
2022-07-29T18:18:18.522Z,5.33
2022-07-29T18:20:48.294Z,9.43
2022-07-29T18:23:18.308Z,8.90
2022-07-29T18:25:46.889Z,11.43
2022-07-29T18:28:15.403Z,5.83
2022-07-29T18:30:43.772Z,12.97
2022-07-29T18:33:22.875Z,9.83
2022-07-29T18:36:06.091Z,14.03
2022-07-29T18:38:41.565Z,9.17
2022-07-29T18:41:09.947Z,5.07
2022-07-29T18:43:38.340Z,5.00
2022-07-29T18:46:07.042Z,11.97
2022-07-29T18:48:35.575Z,9.70
2022-07-29T18:51:09.291Z,10.67
2022-07-29T18:53:38.417Z,7.30
2022-07-29T18:56:08.322Z,9.43
2022-07-29T18:58:38.486Z,9.00
2022-07-29T19:01:07.246Z,7.77
2022-07-29T19:03:35.930Z,6.10
2022-07-29T19:06:04.415Z,226.53
2022-07-29T19:08:33.436Z,514.80
2022-07-29T19:11:01.827Z,915.53
2022-07-29T19:13:31.738Z,33.70
2022-07-29T19:16:00.604Z,5.60
2022-07-29T19:18:29.520Z,7.20
2022-07-29T19:20:58.038Z,7.93
2022-07-29T19:23:26.643Z,65.33
2022-07-29T19:25:56.206Z,121.33
2022-07-29T19:28:24.693Z,62.23
2022-07-29T19:30:54.583Z,9.93
2022-07-29T19:33:23.325Z,54.67
2022-07-29T19:35:54.902Z,103.20
2022-07-29T19:38:24.058Z,154.20
2022-07-29T19:40:53.768Z,52.40
2022-07-29T19:43:51.555Z,7.27
2022-07-29T19:46:12.414Z,8.87
2022-07-29T19:48:40.898Z,6.43
2022-07-29T19:51:10.182Z,7.83
2022-07-29T19:53:38.746Z,8.53
2022-07-29T19:56:08.775Z,6.23
2022-07-29T19:58:39.308Z,10.27
2022-07-29T20:01:10.326Z,4.33
2022-07-29T20:03:42.273Z,7.67
2022-07-29T20:06:10.881Z,8.03
2022-07-29T20:08:39.514Z,249.63
2022-07-29T20:11:08.270Z,57.20
2022-07-29T20:13:36.964Z,70.27
2022-07-29T20:16:08.433Z,18.57
2022-07-29T20:18:37.513Z,7.07
2022-07-29T20:21:07.507Z,6.57
2022-07-29T20:23:36.102Z,12.17
2022-07-29T20:26:09.354Z,54.03
2022-07-29T20:28:40.558Z,88.33
2022-07-29T20:31:09.608Z,17.87
2022-07-29T20:33:38.259Z,11.90
2022-07-29T20:36:09.072Z,46.77
2022-07-29T20:38:37.868Z,20.40
2022-07-29T20:41:06.324Z,28.93
2022-07-29T20:43:35.882Z,11.53
2022-07-29T20:46:07.367Z,7.07
2022-07-29T20:48:35.964Z,11.43
2022-07-29T20:51:05.340Z,9.37
2022-07-29T20:53:35.452Z,12.03
2022-07-29T20:56:04.291Z,13.53
2022-07-29T20:58:34.269Z,6.90
2022-07-29T21:01:06.094Z,11.37
2022-07-29T21:03:35.359Z,9.00
2022-07-29T21:06:04.033Z,11.47
2022-07-29T21:08:33.544Z,6.87
2022-07-29T21:11:03.979Z,7.80
2022-07-29T21:13:33.227Z,5.90
2022-07-29T21:16:06.326Z,9.40
2022-07-29T21:18:38.314Z,11.30
2022-07-29T21:21:06.916Z,7.17
2022-07-29T21:23:36.095Z,12.63
2022-07-29T21:26:08.724Z,41.07
2022-07-29T21:28:40.830Z,43.60
2022-07-29T21:31:12.682Z,11.20
2022-07-29T21:33:42.360Z,8.20
2022-07-29T21:36:42.750Z,49.57
2022-07-29T21:39:01.017Z,60.83
2022-07-29T21:41:30.931Z,324.30
2022-07-29T21:43:59.635Z,158.40
2022-07-29T21:46:30.040Z,26.40
2022-07-29T21:48:58.554Z,9.23
2022-07-29T21:51:27.077Z,6.13
2022-07-29T21:53:55.559Z,85.17
2022-07-29T21:56:24.579Z,74.33
2022-07-29T21:58:57.876Z,86.47
2022-07-29T22:01:26.373Z,22.27
2022-07-29T22:03:55.000Z,7.13
2022-07-29T22:06:23.572Z,42.17
2022-07-29T22:08:52.152Z,40.33
2022-07-29T22:11:20.752Z,26.50
2022-07-29T22:13:48.824Z,11.83
2022-07-29T22:16:18.913Z,153.90
2022-07-29T22:18:48.509Z,19.67
2022-07-29T22:21:17.378Z,12.97
2022-07-29T22:23:45.905Z,182.67
2022-07-29T22:26:14.410Z,96.00
2022-07-29T22:28:42.859Z,12.37
2022-07-29T22:31:11.393Z,7.57
2022-07-29T22:33:41.307Z,8.50
2022-07-29T22:36:09.900Z,9.27
2022-07-29T22:38:38.665Z,7.23
2022-07-29T22:41:07.044Z,6.40
2022-07-29T22:43:36.815Z,6.30
2022-07-29T22:46:05.377Z,7.33
2022-07-29T22:48:33.969Z,15.27
2022-07-29T22:51:04.120Z,8.27
2022-07-29T22:53:32.539Z,7.13
2022-07-29T22:56:01.182Z,4.30
2022-07-29T22:58:29.604Z,9.77
2022-07-29T23:00:58.165Z,7.37
2022-07-29T23:03:27.054Z,5.23
2022-07-29T23:05:55.741Z,12.53
2022-07-29T23:08:25.698Z,9.57
2022-07-29T23:10:54.216Z,6.83
2022-07-29T23:13:22.624Z,4.90
2022-07-29T23:15:51.460Z,7.13
2022-07-29T23:18:20.163Z,5.57
2022-07-29T23:20:49.128Z,8.70
2022-07-29T23:23:17.547Z,8.70
2022-07-29T23:25:47.382Z,10.43
2022-07-29T23:28:16.096Z,4.50
2022-07-29T23:30:44.709Z,10.27
2022-07-29T23:33:13.212Z,11.17
2022-07-29T23:35:42.068Z,8.57
2022-07-29T23:38:10.512Z,7.43
2022-07-29T23:40:39.072Z,11.43
2022-07-29T23:43:09.113Z,7.63
2022-07-29T23:45:42.529Z,5.93
2022-07-29T23:48:15.162Z,6.53
2022-07-29T23:50:43.868Z,8.17
2022-07-29T23:53:13.035Z,4.53
2022-07-29T23:55:41.729Z,11.30
2022-07-29T23:58:11.644Z,7.03
